CYVO

Val-D'or Airport

Val-D'or, , Canada
METAR CYVO 192000Z 32009KT 280V020 15SM FEW030 SCT260 21/06 A2997 RMK CF2CI1 SLP157 DENSITY ALT 2100FT
Observed Flight Rules
Jun-19 @ 20:00 UTC (17 minutes ago) Visual Flight Rules
Wind Visibility Clouds
320° at 9 knots 15 miles
  • Few at 3,000' AGL
  • Scattered at 26,000' AGL
Temperatures Readings
Current 21°C / 70°F
Dewpoint 6°C / 43°F
Humidity 38%
Altimeter 29.97" Hg
Pressure 1015.7 hPa
Elevation 337
METAR CYVO 192000Z 32009KT 280V020 15SM FEW030 SCT260 21/06 A2997 RMK CF2CI1 SLP157 DENSITY ALT 2100FT
Observed Flight Rules
Jun-19 @ 20:00 UTC
(17 minutes ago)
VFR
Wind Visibility
320° at 9 knots 15 miles
Clouds
  • Few at 3,000' AGL
  • Scattered at 26,000' AGL
Temperature Dewpoint
21°C / 70°F 6°C / 43°F
Humidity Altimeter Pressure
38% 29.97" Hg 1015.7 hPa